Impacts METAR Board
IDs:

KMEM - Memphis Intl, TN, US

Updated at: 0200 UTC 23 Oct 2018
Potential Impact None Slight Moderate High
Time 22/14Z 22/15Z 22/16Z 22/17Z 22/18Z 22/19Z 22/20Z 22/21Z 22/22Z 22/23Z 23/00Z 23/01Z 23/02Z
Temp49 55 58 61 62 65 65 65 64 60 58 55 51
Dewpt39 40 37 36 39 38 38 39 42 42 41 44 45
Altim30.27 30.28 30.29 30.27 30.24 30.21 30.19 30.18 30.19 30.19 30.20 30.21 30.21
VIS10 10 10 10 10 10 10 10 10 10 10 10 10
CIG250 250 250 220 250 250 250 250 250 250 250 -- --
CoverBKNBKNBKNBKNBKNBKNBKNBKNBKNBKNBKNSCTSCT
FltCatVFRVFRVFRVFRVFRVFRVFRVFRVFRVFRVFRVFRVFR
WX--------------------------
WDir16018017014000020028033000200
WSpd3 6 5 5 4 5 0 3 3 4 0 0 4
WGst-- -- -- -- -- -- -- -- -- -- -- -- --
Raw hourly METARs
KMEM 221354Z 16003KT 10SM FEW150 SCT220 BKN250 09/04 A3027 RMK AO2 SLP251 T00940039
KMEM 221454Z 18006KT 10SM FEW070 SCT150 BKN250 13/04 A3028 RMK AO2 SLP255 T01280044 53005
KMEM 221554Z 17005KT 10SM FEW150 BKN250 14/03 A3029 RMK AO2 SLP255 T01440028
KMEM 221654Z 14005KT 10SM FEW150 BKN220 16/02 A3027 RMK AO2 SLP249 T01610022
KMEM 221754Z VRB04KT 10SM SCT070 BKN250 17/04 A3024 RMK AO2 SLP241 T01670039 10172 20044 58014
KMEM 221854Z VRB05KT 10SM FEW070 SCT150 BKN250 18/03 A3021 RMK AO2 SLP230 T01830033
KMEM 221954Z 00000KT 10SM FEW070 FEW150 BKN250 18/03 A3019 RMK AO2 SLP222 T01830033
KMEM 222054Z 20003KT 10SM FEW070 FEW150 BKN250 18/04 A3018 RMK AO2 SLP219 T01830039 56020
KMEM 222154Z 28003KT 10SM FEW150 BKN250 18/06 A3019 RMK AO2 SLP221 T01780056
KMEM 222254Z 33004KT 10SM BKN250 16/06 A3019 RMK AO2 SLP222 T01560056
KMEM 222354Z 00000KT 10SM BKN250 14/05 A3020 RMK AO2 SLP226 T01440050 10194 20144 53005
KMEM 230054Z 00000KT 10SM SCT250 13/07 A3021 RMK AO2 SLP230 T01280067
KMEM 230154Z 20004KT 10SM SCT250 11/07 A3021 RMK AO2 SLP231 T01060072



Page loaded:  02:41 UTC  |   07:41 PM Pacific  |   08:41 PM Mountain  |   09:41 PM Central  |   10:41 PM Eastern

 

ADVISORIES

FORECASTS

FORECASTS

OBSERVATIONS

USER TOOLS

ABOUT US